createdAt,value
2022-08-05T00:01:36.425Z,41.37
2022-08-05T00:04:17.813Z,41.89
2022-08-05T00:06:47.235Z,41.92
2022-08-05T00:09:19.503Z,42.14
2022-08-05T00:11:55.689Z,42.14
2022-08-05T00:14:29.233Z,42.31
2022-08-05T00:17:01.714Z,42.56
2022-08-05T00:19:33.171Z,42.49
2022-08-05T00:22:11.054Z,42.56
2022-08-05T00:24:42.545Z,42.60
2022-08-05T00:27:14.128Z,42.74
2022-08-05T00:29:45.470Z,42.91
2022-08-05T00:32:14.975Z,43.06
2022-08-05T00:35:05.263Z,42.84
2022-08-05T00:37:50.528Z,42.93
2022-08-05T00:40:27.484Z,43.27
2022-08-05T00:43:02.322Z,43.36
2022-08-05T00:45:42.877Z,43.37
2022-08-05T00:48:27.562Z,43.61
2022-08-05T00:50:59.628Z,43.63
2022-08-05T00:54:01.350Z,43.44
2022-08-05T00:56:25.054Z,43.53
2022-08-05T00:58:53.627Z,43.66
2022-08-05T01:01:42.057Z,43.73
2022-08-05T01:04:14.058Z,43.79
2022-08-05T01:06:46.576Z,43.80
2022-08-05T01:09:17.277Z,43.67
2022-08-05T01:11:56.146Z,43.78
2022-08-05T01:14:27.996Z,43.78
2022-08-05T01:17:28.220Z,44.05
2022-08-05T01:20:20.455Z,43.99
2022-08-05T01:23:15.066Z,44.04
2022-08-05T01:26:10.720Z,44.31
2022-08-05T01:28:57.140Z,44.57
2022-08-05T01:32:00.909Z,44.68
2022-08-05T01:34:39.587Z,44.56
2022-08-05T01:37:25.250Z,44.46
2022-08-05T01:39:59.009Z,44.26
2022-08-05T01:42:29.139Z,44.13
2022-08-05T01:44:59.922Z,44.19
2022-08-05T01:47:39.208Z,44.20
2022-08-05T01:50:28.765Z,44.28
2022-08-05T01:53:02.199Z,44.22
2022-08-05T01:55:36.043Z,44.24
2022-08-05T01:58:29.500Z,44.16
2022-08-05T02:00:58.987Z,44.32
2022-08-05T02:03:36.281Z,44.44
2022-08-05T02:06:24.228Z,44.56
2022-08-05T02:08:59.035Z,44.68
2022-08-05T02:11:42.173Z,44.92
2022-08-05T02:14:26.895Z,45.15
2022-08-05T02:17:00.456Z,45.33
2022-08-05T02:19:28.810Z,45.67
2022-08-05T02:22:28.714Z,45.79
2022-08-05T02:25:03.834Z,45.87
2022-08-05T02:27:59.050Z,45.89
2022-08-05T02:30:26.765Z,46.33
2022-08-05T02:32:58.007Z,46.43
2022-08-05T02:35:37.393Z,46.55
2022-08-05T02:38:09.339Z,46.48
2022-08-05T02:40:42.883Z,46.52
2022-08-05T02:43:13.246Z,46.56
2022-08-05T02:45:52.519Z,46.34
2022-08-05T02:48:29.294Z,46.27
2022-08-05T02:51:00.509Z,46.26
2022-08-05T02:53:39.423Z,46.05
2022-08-05T02:56:18.590Z,46.18
2022-08-05T02:58:51.388Z,46.20
2022-08-05T03:01:27.167Z,46.15
2022-08-05T03:04:03.194Z,46.27
2022-08-05T03:06:54.921Z,46.16
2022-08-05T03:09:37.531Z,46.29
2022-08-05T03:12:36.176Z,46.21
2022-08-05T03:15:07.558Z,46.27
2022-08-05T03:17:41.803Z,46.21
2022-08-05T03:20:10.790Z,46.15
2022-08-05T03:22:44.259Z,46.12
2022-08-05T03:25:32.630Z,46.04
2022-08-05T03:28:05.288Z,45.92
2022-08-05T03:30:34.427Z,45.70
2022-08-05T03:33:05.737Z,45.85
2022-08-05T03:35:40.831Z,45.92
2022-08-05T03:38:14.492Z,46.08
2022-08-05T03:40:45.396Z,46.01
2022-08-05T03:44:08.790Z,46.27
2022-08-05T03:46:05.281Z,46.08
2022-08-05T03:48:36.932Z,46.18
2022-08-05T03:52:36.872Z,46.30
2022-08-05T03:56:01.952Z,46.34
2022-08-05T03:57:16.004Z,46.45
2022-08-05T03:59:55.564Z,46.58
2022-08-05T04:02:38.487Z,46.62
2022-08-05T04:05:10.142Z,46.91
2022-08-05T04:07:57.543Z,46.75
2022-08-05T04:10:32.128Z,47.04
2022-08-05T04:13:07.701Z,47.11
2022-08-05T04:15:36.777Z,47.45
2022-08-05T04:18:06.898Z,47.51
2022-08-05T04:20:36.091Z,47.67
2022-08-05T04:23:04.214Z,47.49
2022-08-05T04:25:56.500Z,47.44
2022-08-05T04:28:30.640Z,47.32
2022-08-05T04:31:01.043Z,47.33
2022-08-05T04:34:18.207Z,47.05
2022-08-05T04:36:45.143Z,46.67
2022-08-05T04:39:07.181Z,46.36
2022-08-05T04:41:37.879Z,45.81
2022-08-05T04:44:09.206Z,45.29
2022-08-05T04:46:39.154Z,44.97
2022-08-05T04:49:12.266Z,44.62
2022-08-05T04:51:44.351Z,43.80
2022-08-05T04:54:14.803Z,43.41
2022-08-05T04:56:43.490Z,42.80
2022-08-05T04:59:21.755Z,42.30
2022-08-05T05:02:06.811Z,41.92
2022-08-05T05:04:47.492Z,41.47
2022-08-05T05:07:17.783Z,41.32
2022-08-05T05:09:46.058Z,41.21
2022-08-05T05:12:14.936Z,40.78
2022-08-05T05:14:50.642Z,40.64
2022-08-05T05:17:23.833Z,40.34
2022-08-05T05:19:56.509Z,40.45
2022-08-05T05:22:26.114Z,40.17
2022-08-05T05:24:58.120Z,40.21
2022-08-05T05:27:44.713Z,40.13
2022-08-05T05:30:29.702Z,40.11
2022-08-05T05:33:15.817Z,40.27
2022-08-05T05:35:47.679Z,40.04
2022-08-05T05:38:22.236Z,39.82
2022-08-05T05:40:56.327Z,39.85
2022-08-05T05:43:56.449Z,39.23
2022-08-05T05:46:15.972Z,39.11
2022-08-05T05:48:47.831Z,38.97
2022-08-05T05:51:24.528Z,38.92
2022-08-05T05:53:58.578Z,38.72
2022-08-05T05:56:33.161Z,38.74
2022-08-05T05:59:05.236Z,38.67
2022-08-05T06:01:37.628Z,38.27
2022-08-05T06:04:12.232Z,37.90
2022-08-05T06:06:42.734Z,37.87
2022-08-05T06:09:17.052Z,37.86
2022-08-05T06:12:01.696Z,37.94
2022-08-05T06:14:31.343Z,37.45
2022-08-05T06:17:02.246Z,37.18
2022-08-05T06:19:56.662Z,36.95
2022-08-05T06:22:34.036Z,36.89
2022-08-05T06:25:24.653Z,37.30
2022-08-05T06:28:11.225Z,37.05
2022-08-05T06:30:40.363Z,36.73
2022-08-05T06:33:09.897Z,36.56
2022-08-05T06:36:03.583Z,36.03
2022-08-05T06:38:35.997Z,35.91
2022-08-05T06:41:07.852Z,35.86
2022-08-05T06:43:57.412Z,35.78
2022-08-05T06:46:30.269Z,35.49
2022-08-05T06:49:01.093Z,35.31
2022-08-05T06:51:30.917Z,35.13
2022-08-05T06:54:02.259Z,35.07
2022-08-05T06:56:34.345Z,34.98
2022-08-05T06:59:09.587Z,34.64
2022-08-05T07:01:41.515Z,34.53
2022-08-05T07:04:10.835Z,34.32
2022-08-05T07:06:42.483Z,34.11
2022-08-05T07:09:10.556Z,33.94
2022-08-05T07:11:39.822Z,33.78
2022-08-05T07:14:29.584Z,34.19
2022-08-05T07:17:58.189Z,33.80
2022-08-05T07:22:39.360Z,33.79
2022-08-05T07:25:55.463Z,33.62
2022-08-05T07:28:04.213Z,33.33
2022-08-05T07:30:39.860Z,32.79
2022-08-05T07:33:16.075Z,31.44
2022-08-05T07:36:04.134Z,31.13
2022-08-05T07:38:43.499Z,30.29
2022-08-05T07:42:08.331Z,30.13
2022-08-05T07:44:18.646Z,29.97
2022-08-05T07:46:49.497Z,29.69
2022-08-05T07:49:18.994Z,29.53
2022-08-05T07:51:54.056Z,28.98
2022-08-05T07:54:30.885Z,28.04
2022-08-05T07:57:22.456Z,28.10
2022-08-05T07:59:53.947Z,26.72
2022-08-05T08:02:30.832Z,25.94
2022-08-05T08:05:16.382Z,25.46
2022-08-05T08:07:59.762Z,26.13
2022-08-05T08:10:30.279Z,25.56
2022-08-05T08:12:58.830Z,25.71
2022-08-05T08:15:37.106Z,24.91
2022-08-05T08:18:15.103Z,24.74
2022-08-05T08:21:01.866Z,23.93
2022-08-05T08:24:02.637Z,23.82
2022-08-05T08:26:26.789Z,23.85
2022-08-05T08:29:02.339Z,23.32
2022-08-05T08:31:50.392Z,23.92
2022-08-05T08:34:30.350Z,24.06
2022-08-05T08:37:04.806Z,23.44
2022-08-05T08:39:37.844Z,22.59
2022-08-05T08:42:34.513Z,22.67
2022-08-05T08:45:18.291Z,22.28
2022-08-05T08:48:12.467Z,21.92
2022-08-05T08:51:21.920Z,21.82
2022-08-05T08:53:36.342Z,22.20
2022-08-05T08:56:06.594Z,22.34
2022-08-05T08:58:43.524Z,22.70
2022-08-05T09:01:18.766Z,22.32
2022-08-05T09:03:57.353Z,22.19
2022-08-05T09:06:29.706Z,22.41
2022-08-05T09:09:01.472Z,22.16
2022-08-05T09:11:51.525Z,21.76
2022-08-05T09:14:56.346Z,21.98
2022-08-05T09:17:39.993Z,22.05
2022-08-05T09:20:04.706Z,22.56
2022-08-05T09:23:18.317Z,22.16
2022-08-05T09:26:01.419Z,22.19
2022-08-05T09:28:34.302Z,21.99
2022-08-05T09:32:38.525Z,21.63
2022-08-05T09:34:02.629Z,21.69
2022-08-05T09:36:55.022Z,21.95
2022-08-05T09:39:27.610Z,22.23
2022-08-05T09:42:13.489Z,22.04
2022-08-05T09:44:56.771Z,21.48
2022-08-05T09:47:35.000Z,21.12
2022-08-05T09:50:38.767Z,20.70
2022-08-05T09:53:08.886Z,20.72
2022-08-05T09:55:57.872Z,20.38
2022-08-05T09:58:29.771Z,20.38
2022-08-05T10:01:14.895Z,20.37
2022-08-05T10:04:00.497Z,20.48
2022-08-05T10:06:31.100Z,20.93
2022-08-05T10:09:25.137Z,20.39
2022-08-05T10:12:18.478Z,20.10
2022-08-05T10:15:20.286Z,19.55
2022-08-05T10:18:09.048Z,19.29
2022-08-05T10:20:52.681Z,19.22
2022-08-05T10:23:55.782Z,19.31
2022-08-05T10:26:17.820Z,19.36
2022-08-05T10:28:47.382Z,19.17
2022-08-05T10:32:49.324Z,19.26
2022-08-05T10:34:06.939Z,17.83
2022-08-05T10:36:42.187Z,17.59
2022-08-05T10:39:24.898Z,18.10
2022-08-05T10:42:33.934Z,17.94
2022-08-05T10:45:21.457Z,17.67
2022-08-05T10:48:30.021Z,17.73
2022-08-05T10:51:21.405Z,17.68
2022-08-05T10:54:01.934Z,17.55
2022-08-05T10:56:49.345Z,18.09
2022-08-05T11:00:03.158Z,18.36
2022-08-05T11:02:38.209Z,17.97
2022-08-05T11:05:10.507Z,17.63
2022-08-05T11:08:09.239Z,17.69
2022-08-05T11:10:50.435Z,17.81
2022-08-05T11:13:57.913Z,18.20
2022-08-05T11:16:47.796Z,17.80
2022-08-05T11:20:16.442Z,18.24
2022-08-05T11:22:39.169Z,17.20
2022-08-05T11:26:04.816Z,16.99
2022-08-05T11:28:17.527Z,16.75
2022-08-05T11:30:58.305Z,16.78
2022-08-05T11:33:46.103Z,16.98
2022-08-05T11:36:33.944Z,17.20
2022-08-05T11:39:03.458Z,16.87
2022-08-05T11:41:58.175Z,16.73
2022-08-05T11:44:40.541Z,16.50
2022-08-05T11:47:17.376Z,16.56
2022-08-05T11:49:56.441Z,16.76
2022-08-05T11:52:29.199Z,16.89
2022-08-05T11:54:59.531Z,16.64
2022-08-05T11:58:08.436Z,16.86
2022-08-05T12:00:29.221Z,16.94
2022-08-05T12:02:58.533Z,16.87
2022-08-05T12:05:36.329Z,16.95
2022-08-05T12:08:11.460Z,16.83
2022-08-05T12:10:45.965Z,16.26
2022-08-05T12:13:18.867Z,16.30
2022-08-05T12:16:14.813Z,16.61
2022-08-05T12:18:52.300Z,16.38
2022-08-05T12:21:30.287Z,16.10
2022-08-05T12:24:10.892Z,16.88
2022-08-05T12:26:47.587Z,16.66
2022-08-05T12:29:22.765Z,16.30
2022-08-05T12:31:56.428Z,16.32
2022-08-05T12:34:33.747Z,16.01
2022-08-05T12:37:21.511Z,15.37
2022-08-05T12:39:51.768Z,15.41
2022-08-05T12:42:21.236Z,16.07
2022-08-05T12:44:50.410Z,15.80
2022-08-05T12:47:29.137Z,15.59
2022-08-05T12:50:04.311Z,15.77
2022-08-05T12:52:42.423Z,15.53
2022-08-05T12:55:23.851Z,15.56
2022-08-05T12:58:50.015Z,15.88
2022-08-05T13:02:02.672Z,15.56
2022-08-05T13:03:41.822Z,15.44
2022-08-05T13:06:16.986Z,15.55
2022-08-05T13:08:51.643Z,15.59
2022-08-05T13:12:01.569Z,15.63
2022-08-05T13:14:36.786Z,15.14
2022-08-05T13:17:20.464Z,14.90
2022-08-05T13:20:09.061Z,14.85
2022-08-05T13:22:47.093Z,14.88
2022-08-05T13:25:19.441Z,14.69
2022-08-05T13:27:52.921Z,14.50
2022-08-05T13:30:34.352Z,14.42
2022-08-05T13:33:04.965Z,14.77
2022-08-05T13:35:47.691Z,14.94
2022-08-05T13:38:30.838Z,14.62
2022-08-05T13:41:04.439Z,14.24
2022-08-05T13:43:45.825Z,14.28
2022-08-05T13:46:51.018Z,14.37
2022-08-05T13:49:10.103Z,14.38
2022-08-05T13:51:42.108Z,14.58
2022-08-05T13:54:21.107Z,14.68
2022-08-05T13:56:53.635Z,14.72
2022-08-05T13:59:27.499Z,14.73
2022-08-05T14:02:00.486Z,15.55
2022-08-05T14:04:51.431Z,15.59
2022-08-05T14:07:59.945Z,15.63
2022-08-05T14:10:28.135Z,15.16
2022-08-05T14:12:57.628Z,14.70
2022-08-05T14:16:05.218Z,14.35
2022-08-05T14:18:17.766Z,14.28
2022-08-05T14:20:48.570Z,14.43
2022-08-05T14:23:23.804Z,14.53
2022-08-05T14:25:58.629Z,14.40
2022-08-05T14:28:29.863Z,14.44
2022-08-05T14:30:59.808Z,14.40
2022-08-05T14:33:56.981Z,14.55
2022-08-05T14:36:21.235Z,14.92
2022-08-05T14:38:51.053Z,15.00
2022-08-05T14:41:20.518Z,14.70
2022-08-05T14:44:01.493Z,14.75
2022-08-05T14:46:35.394Z,14.43
2022-08-05T14:49:07.417Z,14.46
2022-08-05T14:51:42.484Z,14.44
2022-08-05T14:54:29.834Z,14.49
2022-08-05T14:56:59.717Z,14.49
2022-08-05T14:59:29.771Z,14.67
2022-08-05T15:02:14.855Z,14.35
2022-08-05T15:04:47.914Z,14.25
2022-08-05T15:08:06.238Z,14.61
2022-08-05T15:10:09.774Z,14.42
2022-08-05T15:12:59.906Z,14.03
2022-08-05T15:15:55.434Z,13.55
2022-08-05T15:18:17.224Z,13.53
2022-08-05T15:20:46.008Z,13.64
2022-08-05T15:23:14.550Z,13.52
2022-08-05T15:25:52.633Z,13.71
2022-08-05T15:28:27.762Z,13.72
2022-08-05T15:30:56.864Z,14.19
2022-08-05T15:34:04.315Z,13.85
2022-08-05T15:36:17.746Z,13.21
2022-08-05T15:40:58.965Z,13.45
2022-08-05T15:41:57.334Z,13.89
2022-08-05T15:44:29.993Z,13.60
2022-08-05T15:47:01.644Z,13.92
2022-08-05T15:49:47.938Z,14.05
2022-08-05T15:52:53.871Z,13.91
2022-08-05T15:55:10.304Z,13.72
2022-08-05T15:57:43.912Z,13.88
2022-08-05T16:00:14.325Z,13.79
2022-08-05T16:02:45.206Z,13.92
2022-08-05T16:05:13.380Z,13.78
2022-08-05T16:07:46.259Z,13.98
2022-08-05T16:10:15.206Z,13.97
2022-08-05T16:12:43.154Z,14.03
2022-08-05T16:15:18.524Z,14.02
2022-08-05T16:17:58.048Z,14.25
2022-08-05T16:20:27.976Z,14.18
2022-08-05T16:22:57.477Z,14.32
2022-08-05T16:25:32.341Z,14.30
2022-08-05T16:28:05.436Z,14.41
2022-08-05T16:30:36.142Z,14.46
2022-08-05T16:33:04.482Z,14.37
2022-08-05T16:35:34.659Z,14.59
2022-08-05T16:38:24.510Z,14.65
2022-08-05T16:41:00.597Z,14.80
2022-08-05T16:43:32.299Z,14.74
2022-08-05T16:46:05.868Z,14.77
2022-08-05T16:48:38.533Z,14.71
2022-08-05T16:51:10.194Z,14.78
2022-08-05T16:54:05.212Z,14.75
2022-08-05T16:56:30.754Z,14.98
2022-08-05T16:59:00.883Z,15.16
2022-08-05T17:01:54.127Z,15.39
2022-08-05T17:04:19.643Z,15.40
2022-08-05T17:06:53.545Z,15.49
2022-08-05T17:09:22.961Z,15.75
2022-08-05T17:11:56.049Z,15.96
2022-08-05T17:14:36.901Z,16.22
2022-08-05T17:17:14.254Z,16.35
2022-08-05T17:19:46.350Z,16.53
2022-08-05T17:22:24.967Z,16.65
2022-08-05T17:24:57.236Z,16.64
2022-08-05T17:27:33.974Z,16.77
2022-08-05T17:30:07.099Z,16.88
2022-08-05T17:32:42.202Z,17.01
2022-08-05T17:35:12.364Z,17.09
2022-08-05T17:37:45.226Z,17.29
2022-08-05T17:40:17.478Z,17.44
2022-08-05T17:42:50.868Z,17.49
2022-08-05T17:45:22.098Z,17.60
2022-08-05T17:47:54.940Z,17.75
2022-08-05T17:50:28.104Z,17.84
2022-08-05T17:52:59.379Z,17.96
2022-08-05T17:55:37.437Z,18.09
2022-08-05T17:58:11.264Z,18.29
2022-08-05T18:00:44.562Z,18.35
2022-08-05T18:03:48.423Z,18.41
2022-08-05T18:06:12.170Z,18.51
2022-08-05T18:08:46.051Z,18.64
2022-08-05T18:11:23.256Z,18.72
2022-08-05T18:13:53.906Z,18.91
2022-08-05T18:16:22.064Z,19.34
2022-08-05T18:18:50.345Z,19.40
2022-08-05T18:21:22.981Z,19.52
2022-08-05T18:23:54.698Z,19.86
2022-08-05T18:26:27.778Z,20.46
2022-08-05T18:28:58.614Z,21.28
2022-08-05T18:31:33.928Z,21.37
2022-08-05T18:34:05.997Z,22.33
2022-08-05T18:36:35.515Z,22.96
2022-08-05T18:39:06.546Z,23.52
2022-08-05T18:41:55.344Z,23.73
2022-08-05T18:44:34.662Z,24.21
2022-08-05T18:47:04.503Z,24.36
2022-08-05T18:49:58.276Z,24.85
2022-08-05T18:52:36.192Z,25.06
2022-08-05T18:55:06.573Z,25.36
2022-08-05T18:57:50.348Z,25.60
2022-08-05T19:00:28.550Z,26.07
2022-08-05T19:03:03.697Z,26.17
2022-08-05T19:06:12.178Z,26.49
2022-08-05T19:08:30.156Z,26.70
2022-08-05T19:11:04.715Z,27.15
2022-08-05T19:13:35.894Z,27.28
2022-08-05T19:16:24.877Z,27.39
2022-08-05T19:18:56.585Z,27.88
2022-08-05T19:21:27.553Z,27.68
2022-08-05T19:24:06.151Z,28.06
2022-08-05T19:26:54.760Z,28.34
2022-08-05T19:29:35.457Z,28.53
2022-08-05T19:32:08.535Z,28.85
2022-08-05T19:34:39.544Z,29.19
2022-08-05T19:37:08.020Z,29.30
2022-08-05T19:39:45.888Z,29.24
2022-08-05T19:42:35.522Z,29.44
2022-08-05T19:45:05.919Z,29.44
2022-08-05T19:47:37.641Z,29.81
2022-08-05T19:50:07.834Z,29.93
2022-08-05T19:52:40.877Z,30.11
2022-08-05T19:56:14.087Z,30.31
2022-08-05T19:58:19.689Z,30.52
2022-08-05T20:00:47.090Z,30.46
2022-08-05T20:03:16.463Z,30.71
2022-08-05T20:05:51.123Z,30.84
2022-08-05T20:08:20.590Z,30.91
2022-08-05T20:10:53.514Z,31.19
2022-08-05T20:13:55.012Z,31.32
2022-08-05T20:16:10.160Z,31.20
2022-08-05T20:18:39.452Z,31.19
2022-08-05T20:21:07.979Z,31.42
2022-08-05T20:23:39.378Z,31.55
2022-08-05T20:26:20.790Z,31.97
2022-08-05T20:28:51.414Z,31.93
2022-08-05T20:31:28.433Z,32.18
2022-08-05T20:34:10.842Z,32.46
2022-08-05T20:36:43.490Z,32.83
2022-08-05T20:39:13.561Z,32.71
2022-08-05T20:41:47.953Z,33.13
2022-08-05T20:44:30.217Z,33.46
2022-08-05T20:47:01.634Z,33.45
2022-08-05T20:49:33.174Z,33.84
2022-08-05T20:52:10.475Z,33.91
2022-08-05T20:54:55.114Z,33.82
2022-08-05T20:57:43.700Z,33.91
2022-08-05T21:00:35.078Z,33.79
2022-08-05T21:03:07.995Z,33.99
2022-08-05T21:05:53.484Z,34.19
2022-08-05T21:08:26.804Z,34.06
2022-08-05T21:11:01.321Z,34.22
2022-08-05T21:13:47.882Z,34.33
2022-08-05T21:16:29.702Z,34.41
2022-08-05T21:19:01.377Z,34.59
2022-08-05T21:21:44.194Z,34.67
2022-08-05T21:24:19.629Z,35.08
2022-08-05T21:26:58.374Z,35.32
2022-08-05T21:29:31.447Z,35.56
2022-08-05T21:32:02.842Z,35.81
2022-08-05T21:34:31.591Z,35.98
2022-08-05T21:37:01.782Z,36.20
2022-08-05T21:39:31.050Z,36.47
2022-08-05T21:42:03.362Z,36.51
2022-08-05T21:44:31.947Z,36.41
2022-08-05T21:47:00.506Z,36.43
2022-08-05T21:49:48.564Z,36.35
2022-08-05T21:52:26.906Z,36.39
2022-08-05T21:55:06.906Z,36.45
2022-08-05T21:57:36.600Z,36.68
2022-08-05T22:00:12.043Z,36.53
2022-08-05T22:02:43.546Z,36.41
2022-08-05T22:05:12.717Z,36.52
2022-08-05T22:07:58.682Z,36.62
2022-08-05T22:10:28.542Z,36.68
2022-08-05T22:12:59.083Z,36.55
2022-08-05T22:16:01.747Z,36.46
2022-08-05T22:18:25.804Z,36.40
2022-08-05T22:20:54.389Z,36.26
2022-08-05T22:24:03.272Z,36.21
2022-08-05T22:26:49.848Z,36.36
2022-08-05T22:29:26.905Z,36.13
2022-08-05T22:31:59.745Z,36.23
2022-08-05T22:34:34.438Z,36.05
2022-08-05T22:37:04.957Z,36.00
2022-08-05T22:39:34.929Z,36.15
2022-08-05T22:42:12.725Z,36.18
2022-08-05T22:44:48.604Z,36.22
2022-08-05T22:47:29.898Z,36.19
2022-08-05T22:50:20.594Z,36.35
2022-08-05T22:52:52.954Z,36.40
2022-08-05T22:55:23.061Z,36.58
2022-08-05T22:57:51.509Z,36.66
2022-08-05T23:00:22.446Z,36.64
2022-08-05T23:02:53.414Z,36.94
2022-08-05T23:05:22.590Z,36.89
2022-08-05T23:07:51.508Z,37.11
2022-08-05T23:10:23.893Z,37.10
2022-08-05T23:12:55.147Z,37.33
2022-08-05T23:15:29.522Z,37.24
2022-08-05T23:18:03.400Z,37.39
2022-08-05T23:20:37.280Z,37.29
2022-08-05T23:23:08.296Z,37.36
2022-08-05T23:25:51.179Z,37.44
2022-08-05T23:28:28.958Z,37.61
2022-08-05T23:31:16.443Z,37.64
2022-08-05T23:34:03.828Z,37.71
2022-08-05T23:36:38.662Z,37.84
2022-08-05T23:39:32.080Z,37.98
2022-08-05T23:42:08.641Z,38.10
2022-08-05T23:44:42.750Z,38.14
2022-08-05T23:47:15.266Z,38.25
2022-08-05T23:49:45.680Z,38.40
2022-08-05T23:52:32.278Z,38.46
2022-08-05T23:55:07.043Z,38.49
2022-08-05T23:57:37.258Z,38.62
